Aviation Digital Data Service (ADDS)

Output produced by METARs form (1421 UTC 02 August 2015)
found at http://aviationweather.gov/adds/metars/
 
KDFW 021126Z 0212/0318 15007KT P6SM BKN110 
     FM022000 12005KT P6SM SCT120 SCT300